createdAt,value
2022-07-30T00:00:33.223Z,100.00
2022-07-30T00:03:00.040Z,100.00
2022-07-30T00:05:28.057Z,100.00
2022-07-30T00:08:15.483Z,100.00
2022-07-30T00:10:55.915Z,100.00
2022-07-30T00:13:22.677Z,100.00
2022-07-30T00:16:09.547Z,100.00
2022-07-30T00:18:50.084Z,100.00
2022-07-30T00:21:35.763Z,100.00
2022-07-30T00:24:03.904Z,100.00
2022-07-30T00:26:30.870Z,100.00
2022-07-30T00:29:17.492Z,100.00
2022-07-30T00:31:57.948Z,100.00
2022-07-30T00:34:24.862Z,100.00
2022-07-30T00:37:11.530Z,100.00
2022-07-30T00:39:51.972Z,100.00
2022-07-30T00:42:25.654Z,100.00
2022-07-30T00:44:52.996Z,100.00
2022-07-30T00:47:20.263Z,100.00
2022-07-30T00:49:47.488Z,100.00
2022-07-30T00:52:14.288Z,100.00
2022-07-30T00:54:41.186Z,100.00
2022-07-30T00:57:08.040Z,100.00
2022-07-30T00:59:36.275Z,100.00
2022-07-30T01:02:03.686Z,100.00
2022-07-30T01:04:31.265Z,100.00
2022-07-30T01:06:58.596Z,100.00
2022-07-30T01:09:48.034Z,100.00
2022-07-30T01:12:49.572Z,100.00
2022-07-30T01:15:30.262Z,100.00
2022-07-30T01:17:58.517Z,100.00
2022-07-30T01:20:43.880Z,100.00
2022-07-30T01:23:15.029Z,100.00
2022-07-30T01:25:48.697Z,100.00
2022-07-30T01:28:38.527Z,100.00
2022-07-30T01:31:40.584Z,100.00
2022-07-30T01:34:22.733Z,100.00
2022-07-30T01:36:50.628Z,100.00
2022-07-30T01:39:18.078Z,100.00
2022-07-30T01:41:45.450Z,100.00
2022-07-30T01:44:12.624Z,100.00
2022-07-30T01:46:39.674Z,100.00
2022-07-30T01:49:08.507Z,100.00
2022-07-30T01:51:37.895Z,100.00
2022-07-30T01:54:08.409Z,100.00
2022-07-30T01:56:36.087Z,100.00
2022-07-30T01:59:03.918Z,100.00
2022-07-30T02:01:31.323Z,100.00
2022-07-30T02:04:01.235Z,100.00
2022-07-30T02:06:35.069Z,100.00
2022-07-30T02:09:23.545Z,100.00
2022-07-30T02:12:23.622Z,100.00
2022-07-30T02:14:55.167Z,100.00
2022-07-30T02:17:30.463Z,100.00
2022-07-30T02:20:09.923Z,100.00
2022-07-30T02:22:39.627Z,100.00
2022-07-30T02:25:07.709Z,100.00
2022-07-30T02:27:56.597Z,100.00
2022-07-30T02:31:00.661Z,100.00
2022-07-30T02:33:49.117Z,100.00
2022-07-30T02:36:19.025Z,100.00
2022-07-30T02:38:47.460Z,100.00
2022-07-30T02:41:15.263Z,100.00
2022-07-30T02:43:42.568Z,100.00
2022-07-30T02:46:11.515Z,100.00
2022-07-30T02:49:12.455Z,100.00
2022-07-30T02:51:42.260Z,100.00
2022-07-30T02:54:10.858Z,100.00
2022-07-30T02:56:40.716Z,100.00
2022-07-30T02:59:08.592Z,100.00
2022-07-30T03:01:55.622Z,100.00
2022-07-30T03:04:56.635Z,100.00
2022-07-30T03:07:58.582Z,100.00
2022-07-30T03:10:45.157Z,100.00
2022-07-30T03:13:12.642Z,100.00
2022-07-30T03:15:43.383Z,100.00
2022-07-30T03:18:12.309Z,100.00
2022-07-30T03:20:39.515Z,100.00
2022-07-30T03:23:07.268Z,100.00
2022-07-30T03:25:35.048Z,100.00
2022-07-30T03:28:22.615Z,100.00
2022-07-30T03:31:23.663Z,100.00
2022-07-30T03:34:09.935Z,100.00
2022-07-30T03:36:41.707Z,100.00
2022-07-30T03:39:09.426Z,100.00
2022-07-30T03:41:37.005Z,100.00
2022-07-30T03:44:08.557Z,100.00
2022-07-30T03:46:56.704Z,100.00
2022-07-30T03:49:39.329Z,100.00
2022-07-30T03:52:06.856Z,100.00
2022-07-30T03:54:55.682Z,100.00
2022-07-30T03:57:45.285Z,100.00
2022-07-30T04:00:15.709Z,100.00
2022-07-30T04:02:48.265Z,100.00
2022-07-30T04:05:46.871Z,100.00
2022-07-30T04:08:33.638Z,100.00
2022-07-30T04:11:14.215Z,100.00
2022-07-30T04:14:00.079Z,100.00
2022-07-30T04:16:41.371Z,100.00
2022-07-30T04:19:17.353Z,100.00
2022-07-30T04:21:44.917Z,100.00
2022-07-30T04:24:12.841Z,100.00
2022-07-30T04:26:40.173Z,100.00
2022-07-30T04:29:27.675Z,100.00
2022-07-30T04:32:28.655Z,100.00
2022-07-30T04:35:50.826Z,100.00
2022-07-30T04:38:35.968Z,100.00
2022-07-30T04:41:03.240Z,100.00
2022-07-30T04:43:42.280Z,100.00
2022-07-30T04:46:09.532Z,100.00
2022-07-30T04:48:36.346Z,100.00
2022-07-30T04:51:16.961Z,100.00
2022-07-30T04:53:45.588Z,100.00
2022-07-30T04:56:13.950Z,100.00
2022-07-30T04:58:41.636Z,100.00
2022-07-30T05:01:37.079Z,100.00
2022-07-30T05:04:42.656Z,100.00
2022-07-30T05:07:24.150Z,100.00
2022-07-30T05:10:11.695Z,100.00
2022-07-30T05:12:52.118Z,100.00
2022-07-30T05:15:20.937Z,100.00
2022-07-30T05:17:48.086Z,100.00
2022-07-30T05:20:15.072Z,100.00
2022-07-30T05:23:14.878Z,100.00
2022-07-30T05:25:46.693Z,100.00
2022-07-30T05:28:36.678Z,100.00
2022-07-30T05:31:40.670Z,100.00
2022-07-30T05:34:22.160Z,100.00
2022-07-30T05:36:49.110Z,100.00
2022-07-30T05:39:17.702Z,100.00
2022-07-30T05:41:54.068Z,100.00
2022-07-30T05:44:46.935Z,100.00
2022-07-30T05:47:13.852Z,100.00
2022-07-30T05:49:40.967Z,100.00
2022-07-30T05:52:12.958Z,100.00
2022-07-30T05:54:39.970Z,100.00
2022-07-30T05:57:25.070Z,100.00
2022-07-30T05:59:52.146Z,97.81
2022-07-30T06:02:40.766Z,100.00
2022-07-30T06:05:28.353Z,100.00
2022-07-30T06:08:19.747Z,97.09
2022-07-30T06:11:00.295Z,89.98
2022-07-30T06:13:27.550Z,97.11
2022-07-30T06:15:54.716Z,97.40
2022-07-30T06:18:23.284Z,94.87
2022-07-30T06:20:54.330Z,92.60
2022-07-30T06:23:41.529Z,100.00
2022-07-30T06:26:37.618Z,100.00
2022-07-30T06:29:25.688Z,100.00
2022-07-30T06:32:06.320Z,86.31
2022-07-30T06:35:02.512Z,78.97
2022-07-30T06:38:07.118Z,95.08
2022-07-30T06:41:02.999Z,100.00
2022-07-30T06:44:15.741Z,100.00
2022-07-30T06:47:19.698Z,99.78
2022-07-30T06:49:46.598Z,93.90
2022-07-30T06:52:18.319Z,89.16
2022-07-30T06:54:50.000Z,100.00
2022-07-30T06:57:26.061Z,94.66
2022-07-30T06:59:56.621Z,86.26
2022-07-30T07:02:39.998Z,86.04
2022-07-30T07:05:14.353Z,93.26
2022-07-30T07:08:05.774Z,98.25
2022-07-30T07:10:52.216Z,97.00
2022-07-30T07:13:28.010Z,88.24
2022-07-30T07:15:55.555Z,100.00
2022-07-30T07:18:24.483Z,99.94
2022-07-30T07:20:59.284Z,96.62
2022-07-30T07:23:26.406Z,84.02
2022-07-30T07:26:14.750Z,89.88
2022-07-30T07:29:05.112Z,95.16
2022-07-30T07:32:05.527Z,96.21
2022-07-30T07:34:32.396Z,88.86
2022-07-30T07:36:59.573Z,81.12
2022-07-30T07:39:26.613Z,87.96
2022-07-30T07:41:53.651Z,80.52
2022-07-30T07:44:23.261Z,77.63
2022-07-30T07:46:50.061Z,85.16
2022-07-30T07:49:36.761Z,77.69
2022-07-30T07:52:37.821Z,76.25
2022-07-30T07:55:18.447Z,82.97
2022-07-30T07:57:45.607Z,78.87
2022-07-30T08:00:15.844Z,79.59
2022-07-30T08:02:50.899Z,74.05
2022-07-30T08:05:18.696Z,88.28
2022-07-30T08:08:12.772Z,90.24
2022-07-30T08:11:31.841Z,85.63
2022-07-30T08:14:32.199Z,87.14
2022-07-30T08:17:17.403Z,87.99
2022-07-30T08:20:06.806Z,92.63
2022-07-30T08:22:33.891Z,95.37
2022-07-30T08:25:02.060Z,94.20
2022-07-30T08:27:31.121Z,89.10
2022-07-30T08:30:17.807Z,90.11
2022-07-30T08:32:58.230Z,83.72
2022-07-30T08:35:25.752Z,78.39
2022-07-30T08:37:52.759Z,84.29
2022-07-30T08:40:25.496Z,90.79
2022-07-30T08:43:23.814Z,87.64
2022-07-30T08:46:25.841Z,94.56
2022-07-30T08:49:14.379Z,87.90
2022-07-30T08:51:42.774Z,84.40
2022-07-30T08:54:44.994Z,92.28
2022-07-30T08:57:12.012Z,93.61
2022-07-30T08:59:59.093Z,92.30
2022-07-30T09:02:30.039Z,96.76
2022-07-30T09:05:03.449Z,89.99
2022-07-30T09:07:50.833Z,85.04
2022-07-30T09:10:53.090Z,85.89
2022-07-30T09:13:35.238Z,86.30
2022-07-30T09:16:02.503Z,78.10
2022-07-30T09:18:35.880Z,80.33
2022-07-30T09:21:15.746Z,75.25
2022-07-30T09:24:01.323Z,78.82
2022-07-30T09:26:59.514Z,81.81
2022-07-30T09:30:11.826Z,87.54
2022-07-30T09:33:10.344Z,87.12
2022-07-30T09:36:07.451Z,87.09
2022-07-30T09:39:13.890Z,82.81
2022-07-30T09:42:20.530Z,81.42
2022-07-30T09:44:47.852Z,82.61
2022-07-30T09:47:30.253Z,78.20
2022-07-30T09:50:07.849Z,87.90
2022-07-30T09:52:35.081Z,75.48
2022-07-30T09:55:02.160Z,74.64
2022-07-30T09:57:31.741Z,74.48
2022-07-30T10:03:38.389Z,83.23
2022-07-30T10:06:35.123Z,84.66
2022-07-30T10:09:37.870Z,83.78
2022-07-30T10:12:39.038Z,75.40
2022-07-30T10:15:20.421Z,84.14
2022-07-30T10:17:48.526Z,84.25
2022-07-30T10:20:44.550Z,84.09
2022-07-30T10:23:32.655Z,82.11
2022-07-30T10:26:38.920Z,78.80
2022-07-30T10:29:59.872Z,78.35
2022-07-30T10:33:04.968Z,81.25
2022-07-30T10:35:46.368Z,80.76
2022-07-30T10:38:18.700Z,83.00
2022-07-30T10:40:52.765Z,79.12
2022-07-30T10:43:19.495Z,71.44
2022-07-30T10:45:49.570Z,71.81
2022-07-30T10:48:19.490Z,74.69
2022-07-30T10:50:53.810Z,79.51
2022-07-30T10:53:40.719Z,75.25
2022-07-30T10:56:14.948Z,77.54
2022-07-30T10:59:00.565Z,76.34
2022-07-30T11:01:53.193Z,76.61
2022-07-30T11:04:22.075Z,71.21
2022-07-30T11:07:31.928Z,71.60
2022-07-30T11:10:52.905Z,74.20
2022-07-30T11:13:55.078Z,74.38
2022-07-30T11:16:42.666Z,73.51
2022-07-30T11:19:55.373Z,72.92
2022-07-30T11:22:37.905Z,72.43
2022-07-30T11:25:50.271Z,73.72
2022-07-30T11:28:52.938Z,75.70
2022-07-30T11:31:55.556Z,69.00
2022-07-30T11:34:24.192Z,68.54
2022-07-30T11:37:18.496Z,71.83
2022-07-30T11:39:55.691Z,67.80
2022-07-30T11:42:33.715Z,68.45
2022-07-30T11:45:36.612Z,68.99
2022-07-30T11:48:09.255Z,64.96
2022-07-30T11:50:36.429Z,61.53
2022-07-30T11:53:03.240Z,68.19
2022-07-30T11:55:54.937Z,62.99
2022-07-30T11:58:37.271Z,67.16
2022-07-30T12:01:09.265Z,71.04
2022-07-30T12:03:39.935Z,67.35
2022-07-30T12:06:09.425Z,64.81
2022-07-30T12:08:58.815Z,64.89
2022-07-30T12:11:39.643Z,62.94
2022-07-30T12:14:06.719Z,64.92
2022-07-30T12:16:33.765Z,62.46
2022-07-30T12:19:09.653Z,61.07
2022-07-30T12:21:36.945Z,61.70
2022-07-30T12:24:05.320Z,62.12
2022-07-30T12:26:45.082Z,63.14
2022-07-30T12:29:39.960Z,65.45
2022-07-30T12:32:40.980Z,60.74
2022-07-30T12:35:21.559Z,54.43
2022-07-30T12:38:08.636Z,59.69
2022-07-30T12:40:50.190Z,62.66
2022-07-30T12:43:17.531Z,60.92
2022-07-30T12:45:50.413Z,66.12
2022-07-30T12:48:20.942Z,59.24
2022-07-30T12:50:49.662Z,53.93
2022-07-30T12:53:16.554Z,57.26
2022-07-30T12:55:44.471Z,54.57
2022-07-30T12:58:11.487Z,57.99
2022-07-30T13:00:58.976Z,59.54
2022-07-30T13:03:40.096Z,55.95
2022-07-30T13:06:16.275Z,58.86
2022-07-30T13:09:04.001Z,45.82
2022-07-30T13:11:49.102Z,48.31
2022-07-30T13:14:17.437Z,46.27
2022-07-30T13:16:44.373Z,52.17
2022-07-30T13:19:12.169Z,46.30
2022-07-30T13:21:58.993Z,46.00
2022-07-30T13:24:39.695Z,45.79
2022-07-30T13:27:07.052Z,45.38
2022-07-30T13:29:54.010Z,43.47
2022-07-30T13:32:55.045Z,48.24
2022-07-30T13:35:38.222Z,43.03
2022-07-30T13:38:06.272Z,37.13
2022-07-30T13:40:33.315Z,35.89
2022-07-30T13:43:00.398Z,36.73
2022-07-30T13:45:27.839Z,36.94
2022-07-30T13:47:54.672Z,36.56
2022-07-30T13:50:42.050Z,36.00
2022-07-30T13:53:43.035Z,34.91
2022-07-30T13:56:30.282Z,36.22
2022-07-30T13:58:57.137Z,37.56
2022-07-30T14:01:24.098Z,37.05
2022-07-30T14:03:51.214Z,34.96
2022-07-30T14:06:21.189Z,33.39
2022-07-30T14:09:08.063Z,31.17
2022-07-30T14:12:09.046Z,35.99
2022-07-30T14:14:49.662Z,34.05
2022-07-30T14:17:16.453Z,34.96
2022-07-30T14:19:43.330Z,35.94
2022-07-30T14:22:10.120Z,35.73
2022-07-30T14:24:36.973Z,34.93
2022-07-30T14:27:04.368Z,30.23
2022-07-30T14:29:31.685Z,30.14
2022-07-30T14:31:58.570Z,29.77
2022-07-30T14:34:25.680Z,29.90
2022-07-30T14:36:52.930Z,30.81
2022-07-30T14:39:40.097Z,34.91
2022-07-30T14:42:43.131Z,30.23
2022-07-30T14:45:23.725Z,30.82
2022-07-30T14:47:50.865Z,31.43
2022-07-30T14:50:56.934Z,34.51
2022-07-30T14:53:38.719Z,35.00
2022-07-30T14:56:05.795Z,33.91
2022-07-30T14:58:32.776Z,33.16
2022-07-30T15:01:15.541Z,32.57
2022-07-30T15:03:47.054Z,33.31
2022-07-30T15:06:15.502Z,36.79
2022-07-30T15:09:03.102Z,35.75
2022-07-30T15:12:08.731Z,35.04
2022-07-30T15:15:04.093Z,34.76
2022-07-30T15:17:40.162Z,33.21
2022-07-30T15:20:09.156Z,32.43
2022-07-30T15:22:36.355Z,30.16
2022-07-30T15:25:03.522Z,29.71
2022-07-30T15:27:33.993Z,28.42
2022-07-30T15:30:01.526Z,29.33
2022-07-30T15:32:28.300Z,29.44
2022-07-30T15:35:16.116Z,29.03
2022-07-30T15:37:56.513Z,28.70
2022-07-30T15:40:23.563Z,27.68
2022-07-30T15:42:50.412Z,27.15
2022-07-30T15:45:18.570Z,30.89
2022-07-30T15:47:46.036Z,29.43
2022-07-30T15:50:13.517Z,29.71
2022-07-30T15:52:40.334Z,29.01
2022-07-30T15:55:21.088Z,28.69
2022-07-30T15:58:24.154Z,27.79
2022-07-30T16:01:05.464Z,27.11
2022-07-30T16:03:32.355Z,26.88
2022-07-30T16:05:59.251Z,28.05
2022-07-30T16:08:46.118Z,28.11
2022-07-30T16:11:26.555Z,27.75
2022-07-30T16:13:56.947Z,27.37
2022-07-30T16:16:23.780Z,28.68
2022-07-30T16:18:50.680Z,28.33
2022-07-30T16:21:18.057Z,27.71
2022-07-30T16:23:45.091Z,28.73
2022-07-30T16:26:32.143Z,30.33
2022-07-30T16:29:14.041Z,30.64
2022-07-30T16:31:41.035Z,29.15
2022-07-30T16:34:08.217Z,29.35
2022-07-30T16:36:35.115Z,30.30
2022-07-30T16:39:02.016Z,30.72
2022-07-30T16:41:28.907Z,32.04
2022-07-30T16:43:55.726Z,31.52
2022-07-30T16:46:23.839Z,31.18
2022-07-30T16:48:50.823Z,31.31
2022-07-30T16:51:17.685Z,31.25
2022-07-30T16:53:44.489Z,30.92
2022-07-30T16:56:11.242Z,30.93
2022-07-30T16:58:58.152Z,30.08
2022-07-30T17:01:59.217Z,29.53
2022-07-30T17:04:41.741Z,30.46
2022-07-30T17:07:10.669Z,30.49
2022-07-30T17:09:59.159Z,31.09
2022-07-30T17:12:40.101Z,32.38
2022-07-30T17:15:07.468Z,31.60
2022-07-30T17:17:34.333Z,31.28
2022-07-30T17:20:02.982Z,33.06
2022-07-30T17:22:29.838Z,32.29
2022-07-30T17:24:56.581Z,33.22
2022-07-30T17:27:23.493Z,34.73
2022-07-30T17:29:50.913Z,33.22
2022-07-30T17:32:18.825Z,35.38
2022-07-30T17:35:08.775Z,34.94
2022-07-30T17:37:50.745Z,37.76
2022-07-30T17:40:28.771Z,38.01
2022-07-30T17:43:03.820Z,38.79
2022-07-30T17:45:32.237Z,41.17
2022-07-30T17:47:59.062Z,42.05
2022-07-30T17:50:25.818Z,40.80
2022-07-30T17:52:52.717Z,38.92
2022-07-30T17:55:19.557Z,39.02
2022-07-30T17:57:46.461Z,39.03
2022-07-30T18:00:33.190Z,39.52
2022-07-30T18:03:34.224Z,40.49
2022-07-30T18:06:15.022Z,41.39
2022-07-30T18:09:02.190Z,42.47
2022-07-30T18:11:43.033Z,40.38
2022-07-30T18:14:09.867Z,40.58
2022-07-30T18:16:36.710Z,42.22
2022-07-30T18:19:03.645Z,41.25
2022-07-30T18:21:30.506Z,42.30
2022-07-30T18:23:58.501Z,41.99
2022-07-30T18:26:25.313Z,42.33
2022-07-30T18:28:52.128Z,43.81
2022-07-30T18:31:19.027Z,44.15
2022-07-30T18:33:45.977Z,44.53
2022-07-30T18:36:12.803Z,44.44
2022-07-30T18:38:39.777Z,48.17
2022-07-30T18:41:06.573Z,49.34
2022-07-30T18:44:07.218Z,51.94
2022-07-30T18:47:08.223Z,52.71
2022-07-30T18:49:50.263Z,52.99
2022-07-30T18:52:17.395Z,54.36
2022-07-30T18:54:44.188Z,59.09
2022-07-30T18:57:14.371Z,61.33
2022-07-30T18:59:41.675Z,59.97
2022-07-30T19:02:08.609Z,63.62
2022-07-30T19:04:35.721Z,64.94
2022-07-30T19:07:02.544Z,63.30
2022-07-30T19:09:49.359Z,62.07
2022-07-30T19:12:50.253Z,61.98
2022-07-30T19:15:51.245Z,61.45
2022-07-30T19:18:31.689Z,63.64
2022-07-30T19:21:19.284Z,59.00
2022-07-30T19:23:59.676Z,66.69
2022-07-30T19:26:26.547Z,66.35
2022-07-30T19:28:53.405Z,70.25
2022-07-30T19:31:20.266Z,69.77
2022-07-30T19:33:47.148Z,70.97
2022-07-30T19:36:16.441Z,71.80
2022-07-30T19:38:45.241Z,71.75
2022-07-30T19:41:32.264Z,72.28
2022-07-30T19:44:21.576Z,73.13
2022-07-30T19:46:48.912Z,75.16
2022-07-30T19:49:19.638Z,75.46
2022-07-30T19:52:22.741Z,75.57
2022-07-30T19:55:04.056Z,74.61
2022-07-30T19:57:53.003Z,74.87
2022-07-30T20:00:25.178Z,69.21
2022-07-30T20:02:52.474Z,62.06
2022-07-30T20:05:19.979Z,61.08
2022-07-30T20:08:07.286Z,61.32
2022-07-30T20:11:08.341Z,63.63
2022-07-30T20:14:09.310Z,69.96
2022-07-30T20:17:10.274Z,71.52
2022-07-30T20:19:37.408Z,73.77
2022-07-30T20:22:24.295Z,69.81
2022-07-30T20:25:06.005Z,75.66
2022-07-30T20:27:35.786Z,78.16
2022-07-30T20:30:04.749Z,78.41
2022-07-30T20:32:31.700Z,73.66
2022-07-30T20:34:59.041Z,72.36
2022-07-30T20:37:27.460Z,73.03
2022-07-30T20:39:55.006Z,73.77
2022-07-30T20:42:45.261Z,69.73
2022-07-30T20:45:40.620Z,72.31
2022-07-30T20:48:16.940Z,70.02
2022-07-30T20:50:46.116Z,69.22
2022-07-30T20:53:16.241Z,71.36
2022-07-30T20:55:43.078Z,67.90
2022-07-30T20:58:16.513Z,67.75
2022-07-30T21:00:49.701Z,72.50
2022-07-30T21:03:21.724Z,70.48
2022-07-30T21:05:48.908Z,70.52
2022-07-30T21:08:39.302Z,72.66
2022-07-30T21:11:19.815Z,72.92
2022-07-30T21:13:47.762Z,71.06
2022-07-30T21:16:16.443Z,70.32
2022-07-30T21:18:50.250Z,74.27
2022-07-30T21:24:59.300Z,76.81
2022-07-30T21:27:39.768Z,69.67
2022-07-30T21:30:07.613Z,70.26
2022-07-30T21:32:34.904Z,68.28
2022-07-30T21:35:08.338Z,69.07
2022-07-30T21:37:36.984Z,67.66
2022-07-30T21:40:04.738Z,70.32
2022-07-30T21:42:52.349Z,70.86
2022-07-30T21:45:40.025Z,74.05
2022-07-30T21:48:07.300Z,77.29
2022-07-30T21:50:34.339Z,74.20
2022-07-30T21:53:01.452Z,74.12
2022-07-30T21:55:52.905Z,74.54
2022-07-30T21:58:33.870Z,74.12
2022-07-30T22:01:17.277Z,75.11
2022-07-30T22:04:01.208Z,75.73
2022-07-30T22:06:39.281Z,78.96
2022-07-30T22:09:33.460Z,80.63
2022-07-30T22:12:35.350Z,80.29
2022-07-30T22:15:36.537Z,78.06
2022-07-30T22:18:18.190Z,74.65
2022-07-30T22:20:48.158Z,74.56
2022-07-30T22:23:15.067Z,74.37
2022-07-30T22:26:02.380Z,76.48
2022-07-30T22:29:03.361Z,78.01
2022-07-30T22:31:57.624Z,78.77
2022-07-30T22:34:25.064Z,79.13
2022-07-30T22:36:52.208Z,79.22
2022-07-30T22:39:19.605Z,79.57
2022-07-30T22:41:46.370Z,81.64
2022-07-30T22:44:13.198Z,83.43
2022-07-30T22:46:39.955Z,84.24
2022-07-30T22:49:45.507Z,83.04
2022-07-30T22:52:36.485Z,85.72
2022-07-30T22:55:09.181Z,85.18
2022-07-30T22:57:38.285Z,84.50
2022-07-30T23:00:11.300Z,83.80
2022-07-30T23:02:39.909Z,84.38
2022-07-30T23:05:07.757Z,83.86
2022-07-30T23:07:47.397Z,82.42
2022-07-30T23:10:43.921Z,83.71
2022-07-30T23:12:31.148Z,77.31
2022-07-30T23:13:10.714Z,85.15
2022-07-30T23:15:37.853Z,83.67
2022-07-30T23:18:04.861Z,85.47
2022-07-30T23:20:31.737Z,88.48
2022-07-30T23:23:18.433Z,89.54
2022-07-30T23:26:19.730Z,89.20
2022-07-30T23:29:20.419Z,91.19
2022-07-30T23:32:00.978Z,92.48
2022-07-30T23:34:27.821Z,91.48
2022-07-30T23:36:54.641Z,90.52
2022-07-30T23:39:21.816Z,92.28
2022-07-30T23:41:48.848Z,93.52
2022-07-30T23:44:15.626Z,94.35
2022-07-30T23:46:42.437Z,94.62
2022-07-30T23:49:09.367Z,92.15
2022-07-30T23:51:56.469Z,90.68
2022-07-30T23:54:36.858Z,87.37
2022-07-30T23:57:04.386Z,87.41
2022-07-30T23:59:40.582Z,88.40
